Time;durP1;ratioP1;P1;durP2;ratioP2;P2;SDS_P1;SDS_P2;PMS_P1;PMS_P2;Temp;Humidity;BMP_temperature;BMP_pressure;BME280_temperature;BME280_humidity;BME280_pressure;Samples;Min_cycle;Max_cycle;Signal;HPM_P1;HPM_P2
2021/12/28 00:01:49;;;;;;;3.17;1.47;;;;;;;;;;5113173;28;20439;-49
2021/12/28 00:07:19;;;;;;;3.17;1.30;;;;;;;;;;5102702;28;20465;-50
2021/12/28 00:09:44;;;;;;;2.90;1.20;;;;;;;;;;5096221;28;20422;-48
2021/12/28 00:12:11;;;;;;;3.20;1.50;;;;;;;;;;5114199;28;20802;-48
2021/12/28 00:14:41;;;;;;;2.13;1.57;;;;;;;;;;5106444;28;20484;-49
2021/12/28 00:19:53;;;;;;;7.63;2.13;;;;;;;;;;5087849;28;20431;-48
2021/12/28 00:22:19;;;;;;;2.03;1.30;;;;;;;;;;5088530;28;20454;-50
2021/12/28 00:24:47;;;;;;;4.07;1.23;;;;;;;;;;5114363;28;20436;-48
2021/12/28 00:27:14;;;;;;;4.23;1.47;;;;;;;;;;5116906;28;20483;-50
2021/12/28 00:29:41;;;;;;;1.63;1.10;;;;;;;;;;5102986;28;20507;-50
2021/12/28 00:32:08;;;;;;;4.50;1.30;;;;;;;;;;5085689;28;20447;-50
2021/12/28 00:34:35;;;;;;;5.87;2.60;;;;;;;;;;5115826;28;20428;-49
2021/12/28 00:37:02;;;;;;;1.77;1.53;;;;;;;;;;5076788;28;20565;-49
2021/12/28 00:39:28;;;;;;;1.40;1.10;;;;;;;;;;5116881;28;20546;-48
2021/12/28 00:41:56;;;;;;;4.57;1.60;;;;;;;;;;5091812;27;20503;-50
2021/12/28 00:44:22;;;;;;;4.37;1.80;;;;;;;;;;5121816;27;20442;-50
2021/12/28 00:46:48;;;;;;;2.20;1.10;;;;;;;;;;5114734;27;20856;-50
2021/12/28 00:49:14;;;;;;;7.53;1.87;;;;;;;;;;5119150;27;20522;-49
2021/12/28 00:51:40;;;;;;;3.70;1.27;;;;;;;;;;5091542;27;21284;-49
2021/12/28 00:54:06;;;;;;;7.80;1.87;;;;;;;;;;5126701;27;20419;-49
2021/12/28 00:56:36;;;;;;;5.90;2.60;;;;;;;;;;5112863;27;20432;-50
2021/12/28 00:59:05;;;;;;;7.60;1.83;;;;;;;;;;5127573;27;20447;-51
2021/12/28 01:01:33;;;;;;;2.57;1.60;;;;;;;;;;5121626;27;20434;-50
2021/12/28 01:04:01;;;;;;;3.63;1.73;;;;;;;;;;5104383;27;20431;-50
2021/12/28 01:06:28;;;;;;;7.20;1.80;;;;;;;;;;5117948;27;20528;-50
2021/12/28 01:08:54;;;;;;;7.23;1.57;;;;;;;;;;5107145;27;21044;-49
2021/12/28 01:11:21;;;;;;;3.70;1.70;;;;;;;;;;5087728;27;20560;-51
2021/12/28 01:13:47;;;;;;;4.97;1.53;;;;;;;;;;5115086;27;20774;-50
2021/12/28 01:16:14;;;;;;;1.90;1.30;;;;;;;;;;5082997;27;20451;-49
2021/12/28 01:18:40;;;;;;;8.90;2.00;;;;;;;;;;5118393;27;20476;-49
2021/12/28 01:21:06;;;;;;;5.13;2.90;;;;;;;;;;5098005;28;20431;-50
2021/12/28 01:23:33;;;;;;;5.80;2.30;;;;;;;;;;5102527;27;20436;-50
2021/12/28 01:25:59;;;;;;;4.43;2.80;;;;;;;;;;5093208;27;20424;-50
2021/12/28 01:28:25;;;;;;;7.30;2.33;;;;;;;;;;5101944;27;21228;-49
2021/12/28 01:30:51;;;;;;;5.97;2.67;;;;;;;;;;5121243;27;20422;-49
2021/12/28 01:33:17;;;;;;;3.97;1.73;;;;;;;;;;5108978;27;20431;-50
2021/12/28 01:35:43;;;;;;;5.60;2.40;;;;;;;;;;5116116;27;20424;-50
2021/12/28 01:38:09;;;;;;;4.13;2.00;;;;;;;;;;5113499;27;20217;-50
2021/12/28 01:40:36;;;;;;;3.20;2.00;;;;;;;;;;5114349;27;20619;-49
2021/12/28 01:43:03;;;;;;;7.63;2.90;;;;;;;;;;5124236;27;20441;-49
2021/12/28 01:45:49;;;;;;;5.70;2.63;;;;;;;;;;5068490;27;20443;-52
2021/12/28 01:48:19;;;;;;;5.87;1.80;;;;;;;;;;5120745;27;20590;-50
2021/12/28 01:50:46;;;;;;;7.57;2.23;;;;;;;;;;5114341;27;20736;-50
2021/12/28 01:53:13;;;;;;;4.07;1.77;;;;;;;;;;5122022;27;20518;-49
2021/12/28 01:55:54;;;;;;;9.40;2.13;;;;;;;;;;5091055;27;20446;-50
2021/12/28 01:58:23;;;;;;;3.93;1.60;;;;;;;;;;5119801;27;20487;-50
2021/12/28 02:00:50;;;;;;;7.20;2.30;;;;;;;;;;5090059;27;20524;-50
2021/12/28 02:03:18;;;;;;;3.60;2.10;;;;;;;;;;5117415;27;20543;-50
2021/12/28 02:05:44;;;;;;;4.17;1.93;;;;;;;;;;5117930;27;20511;-50
2021/12/28 02:08:40;;;;;;;4.67;2.63;;;;;;;;;;5095277;27;20444;-50
2021/12/28 02:11:12;;;;;;;3.20;1.50;;;;;;;;;;5104989;27;20794;-49
2021/12/28 02:13:46;;;;;;;3.83;1.70;;;;;;;;;;5081556;27;21575;-50
2021/12/28 02:16:13;;;;;;;2.67;1.73;;;;;;;;;;5105081;27;20454;-49
2021/12/28 02:18:39;;;;;;;6.37;2.20;;;;;;;;;;5074715;27;20513;-49
2021/12/28 02:21:06;;;;;;;9.90;2.10;;;;;;;;;;5103227;27;20516;-48
2021/12/28 02:23:42;;;;;;;3.47;2.10;;;;;;;;;;5088694;27;20900;-49
2021/12/28 02:26:13;;;;;;;1.53;1.27;;;;;;;;;;5117327;27;20443;-48
2021/12/28 02:28:50;;;;;;;3.57;1.80;;;;;;;;;;5095926;27;20516;-50
2021/12/28 02:31:21;;;;;;;5.40;1.70;;;;;;;;;;5117040;27;20526;-48
2021/12/28 02:33:56;;;;;;;7.00;1.50;;;;;;;;;;5087741;27;20517;-49
2021/12/28 02:36:23;;;;;;;5.70;3.40;;;;;;;;;;5114494;27;20758;-51
2021/12/28 02:38:49;;;;;;;4.00;1.87;;;;;;;;;;5106863;27;20496;-50
2021/12/28 02:41:16;;;;;;;3.33;2.00;;;;;;;;;;5120334;27;20431;-49
2021/12/28 02:43:45;;;;;;;3.50;1.60;;;;;;;;;;5109094;27;20440;-50
2021/12/28 02:46:11;;;;;;;4.10;1.70;;;;;;;;;;5106782;27;20419;-49
2021/12/28 02:48:37;;;;;;;3.23;2.67;;;;;;;;;;5108746;27;20640;-50
2021/12/28 02:51:08;;;;;;;8.33;2.00;;;;;;;;;;5114720;27;20908;-50
2021/12/28 02:53:46;;;;;;;3.00;1.70;;;;;;;;;;5101952;27;20438;-51
2021/12/28 02:56:14;;;;;;;6.10;2.70;;;;;;;;;;5124798;27;20434;-49
2021/12/28 02:58:53;;;;;;;2.60;1.60;;;;;;;;;;5102215;27;20563;-50
2021/12/28 03:01:40;;;;;;;4.43;1.90;;;;;;;;;;5103252;27;21012;-50
2021/12/28 03:04:10;;;;;;;4.97;1.80;;;;;;;;;;5113968;27;20509;-50
2021/12/28 03:06:46;;;;;;;7.80;2.57;;;;;;;;;;5098203;27;20538;-51
2021/12/28 03:09:18;;;;;;;2.40;1.50;;;;;;;;;;5099210;27;20431;-50
2021/12/28 03:11:56;;;;;;;8.27;2.83;;;;;;;;;;5079041;27;20424;-49
2021/12/28 03:14:25;;;;;;;10.80;1.93;;;;;;;;;;5113878;27;20428;-50
2021/12/28 03:16:52;;;;;;;3.73;1.50;;;;;;;;;;5102530;27;20457;-50
2021/12/28 03:19:18;;;;;;;4.10;2.93;;;;;;;;;;5115893;27;20811;-50
2021/12/28 03:21:46;;;;;;;3.17;1.80;;;;;;;;;;5089259;27;20435;-49
2021/12/28 03:24:12;;;;;;;3.77;2.03;;;;;;;;;;5115559;27;20961;-50
2021/12/28 03:26:44;;;;;;;7.37;2.40;;;;;;;;;;5083185;28;21207;-51
2021/12/28 03:29:10;;;;;;;5.87;1.80;;;;;;;;;;5081541;28;20436;-50
2021/12/28 03:31:47;;;;;;;7.30;1.73;;;;;;;;;;5074928;28;20424;-51
2021/12/28 03:34:13;;;;;;;6.60;2.80;;;;;;;;;;5104778;28;20427;-50
2021/12/28 03:36:41;;;;;;;4.40;1.47;;;;;;;;;;5111532;28;20432;-50
2021/12/28 03:39:07;;;;;;;9.50;2.63;;;;;;;;;;5117454;28;20515;-50
2021/12/28 03:41:33;;;;;;;8.63;4.07;;;;;;;;;;5098372;28;21325;-50
2021/12/28 03:44:00;;;;;;;6.47;2.83;;;;;;;;;;5099112;28;20535;-51
2021/12/28 03:46:37;;;;;;;4.30;1.60;;;;;;;;;;5102765;28;20449;-51
2021/12/28 03:49:08;;;;;;;3.43;1.90;;;;;;;;;;5101082;28;20907;-50
2021/12/28 03:51:34;;;;;;;4.40;1.67;;;;;;;;;;5112353;28;21027;-51
2021/12/28 03:54:00;;;;;;;3.07;1.57;;;;;;;;;;5113518;28;20454;-50
2021/12/28 03:56:36;;;;;;;4.43;2.10;;;;;;;;;;5104932;28;20447;-49
2021/12/28 03:59:07;;;;;;;12.53;3.70;;;;;;;;;;5119217;28;20486;-49
2021/12/28 04:02:05;;;;;;;6.70;3.40;;;;;;;;;;5101323;28;20514;-50
2021/12/28 04:04:36;;;;;;;8.50;4.07;;;;;;;;;;5089080;28;20439;-48
2021/12/28 04:07:06;;;;;;;8.70;3.33;;;;;;;;;;5112561;28;21130;-49
2021/12/28 04:10:16;;;;;;;3.93;2.20;;;;;;;;;;5067118;28;20515;-49
2021/12/28 04:12:22;;;;;;;4.07;1.50;;;;;;;;;;5107190;28;20547;-49
2021/12/28 04:14:48;;;;;;;4.63;2.17;;;;;;;;;;5088875;27;20443;-48
2021/12/28 04:17:14;;;;;;;3.27;1.23;;;;;;;;;;5118412;27;20957;-49
2021/12/28 04:19:45;;;;;;;4.07;1.47;;;;;;;;;;5089634;27;20446;-54
2021/12/28 04:22:11;;;;;;;6.17;1.73;;;;;;;;;;5117265;27;20474;-48
2021/12/28 04:24:39;;;;;;;2.53;1.40;;;;;;;;;;5094752;27;20497;-49
2021/12/28 04:27:04;;;;;;;2.50;1.53;;;;;;;;;;5121954;27;20439;-49
2021/12/28 04:29:52;;;;;;;1.93;1.60;;;;;;;;;;5116041;27;20438;-50
2021/12/28 04:32:22;;;;;;;3.20;1.63;;;;;;;;;;5090829;27;21196;-49
2021/12/28 04:35:24;;;;;;;3.77;1.73;;;;;;;;;;5096071;27;20451;-51
2021/12/28 04:37:55;;;;;;;6.40;1.70;;;;;;;;;;5115607;27;20511;-49
2021/12/28 04:40:26;;;;;;;2.80;1.43;;;;;;;;;;5115035;27;20471;-51
2021/12/28 04:42:53;;;;;;;2.50;1.40;;;;;;;;;;5108256;27;20427;-50
2021/12/28 04:45:24;;;;;;;3.67;1.43;;;;;;;;;;5082626;27;20566;-51
2021/12/28 04:47:50;;;;;;;4.60;2.50;;;;;;;;;;5119281;27;20468;-50
2021/12/28 04:50:16;;;;;;;4.93;1.13;;;;;;;;;;5088022;27;21271;-49
2021/12/28 04:52:44;;;;;;;3.90;1.20;;;;;;;;;;5115071;27;21024;-50
2021/12/28 04:55:12;;;;;;;4.50;1.60;;;;;;;;;;5117278;27;20435;-50
2021/12/28 04:57:38;;;;;;;4.80;1.40;;;;;;;;;;5126073;27;20819;-50
2021/12/28 05:00:09;;;;;;;7.00;1.57;;;;;;;;;;5091052;27;20436;-50
2021/12/28 05:02:35;;;;;;;3.60;2.03;;;;;;;;;;5118123;27;20419;-50
2021/12/28 05:05:03;;;;;;;8.27;2.43;;;;;;;;;;5118373;27;20446;-50
2021/12/28 05:07:31;;;;;;;2.77;1.30;;;;;;;;;;5117239;27;20508;-53
2021/12/28 05:10:26;;;;;;;8.53;1.90;;;;;;;;;;5092681;27;20435;-50
2021/12/28 05:12:52;;;;;;;3.00;1.40;;;;;;;;;;5117192;27;20530;-50
2021/12/28 05:15:18;;;;;;;3.20;1.80;;;;;;;;;;5105911;27;20455;-50
2021/12/28 05:17:44;;;;;;;5.90;1.53;;;;;;;;;;5123620;27;20620;-49
2021/12/28 05:20:10;;;;;;;2.73;1.30;;;;;;;;;;5096532;27;20588;-49
2021/12/28 05:22:38;;;;;;;8.33;1.70;;;;;;;;;;5103344;27;20454;-50
2021/12/28 05:25:05;;;;;;;4.43;1.53;;;;;;;;;;5086443;27;20452;-50
2021/12/28 05:27:30;;;;;;;2.20;1.30;;;;;;;;;;5093168;27;20535;-49
2021/12/28 05:29:57;;;;;;;1.20;0.90;;;;;;;;;;5114923;27;20540;-50
2021/12/28 05:32:23;;;;;;;6.13;1.40;;;;;;;;;;5103098;27;20424;-49
2021/12/28 05:34:49;;;;;;;5.60;1.60;;;;;;;;;;5114835;27;20516;-49
2021/12/28 05:37:15;;;;;;;2.40;1.50;;;;;;;;;;5095123;27;21174;-49
2021/12/28 05:39:41;;;;;;;4.07;2.40;;;;;;;;;;5124378;27;20454;-49
2021/12/28 05:42:08;;;;;;;5.03;1.33;;;;;;;;;;5079482;27;20475;-48
2021/12/28 05:44:34;;;;;;;5.37;1.67;;;;;;;;;;5119505;27;20445;-50
2021/12/28 05:47:00;;;;;;;4.93;2.17;;;;;;;;;;5111731;27;20420;-49
2021/12/28 05:49:31;;;;;;;3.27;1.67;;;;;;;;;;5120541;27;20444;-50
2021/12/28 05:52:16;;;;;;;1.93;1.30;;;;;;;;;;5098683;27;20451;-49
2021/12/28 05:54:43;;;;;;;5.03;2.23;;;;;;;;;;5098496;27;20435;-49
2021/12/28 05:57:09;;;;;;;2.07;1.40;;;;;;;;;;5091429;27;20469;-48
2021/12/28 05:59:36;;;;;;;2.00;1.53;;;;;;;;;;5123074;27;20439;-49
2021/12/28 06:02:05;;;;;;;2.50;1.23;;;;;;;;;;5108654;27;20439;-49
2021/12/28 06:04:31;;;;;;;7.20;1.47;;;;;;;;;;5118842;27;20442;-49
2021/12/28 06:06:57;;;;;;;2.13;1.77;;;;;;;;;;5093652;27;20428;-49
2021/12/28 06:09:23;;;;;;;4.40;1.90;;;;;;;;;;5111576;27;20810;-49
2021/12/28 06:12:20;;;;;;;2.30;1.50;;;;;;;;;;5095809;27;21011;-49
2021/12/28 06:14:46;;;;;;;4.20;2.00;;;;;;;;;;5123261;27;20835;-50
2021/12/28 06:17:12;;;;;;;4.50;1.90;;;;;;;;;;5110205;27;20470;-50
2021/12/28 06:19:38;;;;;;;3.73;1.30;;;;;;;;;;5109476;27;20427;-49
2021/12/28 06:22:04;;;;;;;4.33;2.00;;;;;;;;;;5118892;27;20965;-49
2021/12/28 06:24:43;;;;;;;2.57;1.60;;;;;;;;;;5104924;27;21006;-50
2021/12/28 06:27:11;;;;;;;3.57;1.50;;;;;;;;;;5115423;27;20439;-51
2021/12/28 06:29:38;;;;;;;7.90;1.73;;;;;;;;;;5087180;27;20436;-48
2021/12/28 06:32:04;;;;;;;3.30;1.40;;;;;;;;;;5102881;27;20445;-49
2021/12/28 06:34:30;;;;;;;3.90;1.60;;;;;;;;;;5100537;27;20566;-49
2021/12/28 06:36:56;;;;;;;3.10;1.13;;;;;;;;;;5109908;27;20499;-50
2021/12/28 06:39:36;;;;;;;3.00;1.67;;;;;;;;;;5076750;27;20570;-51
2021/12/28 06:42:07;;;;;;;2.90;1.30;;;;;;;;;;5113734;27;20428;-51
2021/12/28 06:44:52;;;;;;;1.93;1.07;;;;;;;;;;5109562;27;20439;-49
2021/12/28 06:47:18;;;;;;;1.50;1.10;;;;;;;;;;5104230;27;20492;-49
2021/12/28 06:49:45;;;;;;;2.43;1.00;;;;;;;;;;5084848;27;20537;-49
2021/12/28 06:52:12;;;;;;;2.50;1.10;;;;;;;;;;5116307;27;20449;-50
2021/12/28 06:54:47;;;;;;;5.63;1.17;;;;;;;;;;5083350;27;20470;-50
2021/12/28 06:57:16;;;;;;;2.37;1.97;;;;;;;;;;5098662;27;20570;-49
2021/12/28 06:59:45;;;;;;;2.93;1.43;;;;;;;;;;5094149;27;20458;-49
2021/12/28 07:02:12;;;;;;;5.10;1.13;;;;;;;;;;5107118;27;20427;-49
2021/12/28 07:04:38;;;;;;;1.43;0.90;;;;;;;;;;5111462;27;20442;-49
2021/12/28 07:07:04;;;;;;;2.40;0.90;;;;;;;;;;5114110;27;20530;-51
2021/12/28 07:09:30;;;;;;;4.33;1.00;;;;;;;;;;5093860;28;20435;-49
2021/12/28 07:11:57;;;;;;;1.30;0.90;;;;;;;;;;5077299;27;20447;-51
2021/12/28 07:14:23;;;;;;;1.20;0.93;;;;;;;;;;5103904;27;20441;-49
2021/12/28 07:16:49;;;;;;;2.27;0.90;;;;;;;;;;5108659;27;20451;-50
2021/12/28 07:19:15;;;;;;;1.63;1.03;;;;;;;;;;5112612;27;20442;-50
2021/12/28 07:21:42;;;;;;;1.20;0.73;;;;;;;;;;5091953;27;20443;-49
2021/12/28 07:24:09;;;;;;;2.40;1.23;;;;;;;;;;5113863;27;20446;-50
2021/12/28 07:26:35;;;;;;;4.30;0.90;;;;;;;;;;5073585;28;20958;-49
2021/12/28 07:29:01;;;;;;;4.03;0.80;;;;;;;;;;5118709;27;20494;-50
2021/12/28 07:31:27;;;;;;;2.33;1.40;;;;;;;;;;5068958;28;20859;-49
2021/12/28 07:33:53;;;;;;;1.93;1.20;;;;;;;;;;5112280;28;20431;-49
2021/12/28 07:36:19;;;;;;;1.30;1.00;;;;;;;;;;5112651;28;20504;-49
2021/12/28 07:38:45;;;;;;;1.40;0.90;;;;;;;;;;5113782;28;20472;-49
2021/12/28 07:41:12;;;;;;;0.80;0.67;;;;;;;;;;5087621;28;20850;-49
2021/12/28 07:43:38;;;;;;;1.30;1.10;;;;;;;;;;5111939;28;20794;-49
2021/12/28 07:46:04;;;;;;;2.07;1.10;;;;;;;;;;5091665;28;20772;-50
2021/12/28 07:48:30;;;;;;;1.00;0.70;;;;;;;;;;5073695;28;22142;-49
2021/12/28 07:50:56;;;;;;;6.50;1.03;;;;;;;;;;5120017;27;20428;-50
2021/12/28 07:53:23;;;;;;;4.10;0.70;;;;;;;;;;5114825;27;20427;-50
2021/12/28 07:55:49;;;;;;;2.90;1.10;;;;;;;;;;5100682;27;20423;-50
2021/12/28 07:58:22;;;;;;;1.40;0.80;;;;;;;;;;5091261;27;20948;-50
2021/12/28 08:00:48;;;;;;;1.47;0.70;;;;;;;;;;5116730;27;20462;-50
2021/12/28 08:03:24;;;;;;;0.90;0.70;;;;;;;;;;5096723;27;21003;-51
2021/12/28 08:05:50;;;;;;;1.30;0.70;;;;;;;;;;5104278;27;20525;-50
2021/12/28 08:08:16;;;;;;;1.17;0.70;;;;;;;;;;5099873;27;20430;-50
2021/12/28 08:10:42;;;;;;;4.43;0.90;;;;;;;;;;5126632;27;20474;-48
2021/12/28 08:13:08;;;;;;;4.60;0.90;;;;;;;;;;5091852;27;20431;-49
2021/12/28 08:15:34;;;;;;;1.40;0.90;;;;;;;;;;5117966;27;20591;-49
2021/12/28 08:21:04;;;;;;;3.13;0.90;;;;;;;;;;5106189;27;20483;-50
2021/12/28 08:23:30;;;;;;;1.30;1.00;;;;;;;;;;5111994;27;20442;-50
2021/12/28 08:25:56;;;;;;;1.43;1.10;;;;;;;;;;5116093;27;20500;-50
2021/12/28 08:28:22;;;;;;;8.70;0.97;;;;;;;;;;5084526;27;20933;-49
2021/12/28 08:30:48;;;;;;;1.40;0.73;;;;;;;;;;5111550;27;20471;-49
2021/12/28 08:33:14;;;;;;;1.33;0.80;;;;;;;;;;5090507;27;20442;-48
2021/12/28 08:35:41;;;;;;;0.93;0.70;;;;;;;;;;5088234;27;20813;-49
2021/12/28 08:38:10;;;;;;;1.00;0.80;;;;;;;;;;5095910;27;20486;-50
2021/12/28 08:40:38;;;;;;;1.00;0.90;;;;;;;;;;5068384;27;20474;-50
2021/12/28 08:43:04;;;;;;;6.87;0.80;;;;;;;;;;5114972;27;20982;-49
2021/12/28 08:45:30;;;;;;;1.20;0.87;;;;;;;;;;5082966;27;20462;-49
2021/12/28 08:47:57;;;;;;;3.53;0.87;;;;;;;;;;5108578;27;20452;-49
2021/12/28 08:50:23;;;;;;;1.37;0.80;;;;;;;;;;5069307;27;20462;-50
2021/12/28 08:52:49;;;;;;;1.33;0.80;;;;;;;;;;5100203;27;21042;-50
2021/12/28 08:55:16;;;;;;;2.90;1.07;;;;;;;;;;5110370;27;20442;-49
2021/12/28 08:57:44;;;;;;;3.57;0.87;;;;;;;;;;5112774;27;20991;-51
2021/12/28 09:00:14;;;;;;;1.30;0.73;;;;;;;;;;5093367;27;20442;-49
2021/12/28 09:02:40;;;;;;;1.20;0.80;;;;;;;;;;5095343;27;20526;-50
2021/12/28 09:05:11;;;;;;;0.93;0.83;;;;;;;;;;5083856;27;20454;-50
2021/12/28 09:07:44;;;;;;;0.90;0.70;;;;;;;;;;5106322;27;20639;-51
2021/12/28 09:10:11;;;;;;;0.90;0.50;;;;;;;;;;5086040;27;20447;-50
2021/12/28 09:12:37;;;;;;;1.03;0.60;;;;;;;;;;5098615;27;20439;-50
2021/12/28 09:15:04;;;;;;;1.23;0.70;;;;;;;;;;5113735;27;20425;-50
2021/12/28 09:17:30;;;;;;;1.23;0.70;;;;;;;;;;5115663;27;20477;-50
2021/12/28 09:19:57;;;;;;;1.37;0.80;;;;;;;;;;5104609;27;20448;-50
2021/12/28 09:22:24;;;;;;;1.20;0.60;;;;;;;;;;5115313;27;20440;-50
2021/12/28 09:24:50;;;;;;;1.33;0.70;;;;;;;;;;5079334;27;20499;-50
2021/12/28 09:27:16;;;;;;;3.13;1.33;;;;;;;;;;5116761;27;20439;-49
2021/12/28 09:29:44;;;;;;;0.90;0.60;;;;;;;;;;5110180;27;20423;-50
2021/12/28 09:32:11;;;;;;;0.90;0.50;;;;;;;;;;5113768;27;20459;-50
2021/12/28 09:34:39;;;;;;;1.33;0.90;;;;;;;;;;5104921;27;21034;-50
2021/12/28 09:37:06;;;;;;;2.27;0.80;;;;;;;;;;5091468;27;20450;-50
2021/12/28 09:39:39;;;;;;;1.30;0.73;;;;;;;;;;5109751;27;20431;-50
2021/12/28 09:42:10;;;;;;;0.90;0.70;;;;;;;;;;5117007;27;20450;-51
2021/12/28 09:44:36;;;;;;;6.40;0.80;;;;;;;;;;5124022;27;20522;-49
2021/12/28 09:47:03;;;;;;;0.80;0.60;;;;;;;;;;5116524;27;20960;-49
2021/12/28 09:49:30;;;;;;;1.00;0.60;;;;;;;;;;5100249;27;21244;-50
2021/12/28 09:51:56;;;;;;;4.33;0.90;;;;;;;;;;5090204;27;20439;-49
2021/12/28 09:54:50;;;;;;;2.00;0.97;;;;;;;;;;5110882;27;20439;-51
2021/12/28 09:57:24;;;;;;;1.07;0.60;;;;;;;;;;5113493;27;20577;-49
2021/12/28 09:59:57;;;;;;;0.80;0.50;;;;;;;;;;5084197;28;20443;-50
2021/12/28 10:02:23;;;;;;;1.77;0.87;;;;;;;;;;5116048;27;20419;-51
2021/12/28 10:04:53;;;;;;;1.20;0.60;;;;;;;;;;5090020;27;21218;-49
2021/12/28 10:07:20;;;;;;;1.00;0.70;;;;;;;;;;5113586;27;20420;-48
2021/12/28 10:09:47;;;;;;;1.37;1.00;;;;;;;;;;5072317;27;21342;-48
2021/12/28 10:12:16;;;;;;;1.23;0.80;;;;;;;;;;5095215;27;20444;-49
2021/12/28 10:14:43;;;;;;;1.33;0.70;;;;;;;;;;5091985;27;20427;-50
2021/12/28 10:17:09;;;;;;;1.20;0.70;;;;;;;;;;5113090;27;20542;-49
2021/12/28 10:19:40;;;;;;;1.23;0.80;;;;;;;;;;5102241;27;20998;-49
2021/12/28 10:22:23;;;;;;;1.20;0.80;;;;;;;;;;5108917;27;20184;-50
2021/12/28 10:25:00;;;;;;;0.87;0.57;;;;;;;;;;5114795;27;20447;-50
2021/12/28 10:27:29;;;;;;;2.40;0.60;;;;;;;;;;5108111;27;20661;-50
2021/12/28 10:29:55;;;;;;;1.20;0.60;;;;;;;;;;5083562;27;20452;-50
2021/12/28 10:32:24;;;;;;;0.90;0.60;;;;;;;;;;5112458;27;20499;-51
2021/12/28 10:34:55;;;;;;;1.00;0.60;;;;;;;;;;5097147;27;20427;-51
2021/12/28 10:37:22;;;;;;;1.00;0.70;;;;;;;;;;5095913;27;20499;-51
2021/12/28 10:39:51;;;;;;;1.30;0.70;;;;;;;;;;5091601;28;20439;-51
2021/12/28 10:42:37;;;;;;;1.00;0.50;;;;;;;;;;5114395;27;20444;-50
2021/12/28 10:45:04;;;;;;;1.00;0.60;;;;;;;;;;5072938;27;20470;-50
2021/12/28 10:47:30;;;;;;;1.20;0.70;;;;;;;;;;5112123;27;20529;-49
2021/12/28 10:49:59;;;;;;;0.93;0.60;;;;;;;;;;5090935;27;20443;-49
2021/12/28 10:52:29;;;;;;;1.87;1.00;;;;;;;;;;5112217;27;20491;-50
2021/12/28 10:55:19;;;;;;;1.40;0.90;;;;;;;;;;5089967;27;20448;-49
2021/12/28 10:57:45;;;;;;;1.40;0.90;;;;;;;;;;5097979;27;20483;-50
2021/12/28 11:00:20;;;;;;;1.50;0.90;;;;;;;;;;5084590;27;20486;-50
2021/12/28 11:02:54;;;;;;;0.90;0.63;;;;;;;;;;5113898;27;20432;-50
2021/12/28 11:05:33;;;;;;;1.40;0.80;;;;;;;;;;5039612;27;20439;-50
2021/12/28 11:07:58;;;;;;;1.17;0.70;;;;;;;;;;5102628;28;20509;-49
2021/12/28 11:10:28;;;;;;;1.00;0.70;;;;;;;;;;5100954;27;23240;-49
2021/12/28 11:12:54;;;;;;;1.20;0.80;;;;;;;;;;5113231;27;20777;-50
2021/12/28 11:15:24;;;;;;;0.97;0.60;;;;;;;;;;5082490;27;20466;-49
2021/12/28 11:17:51;;;;;;;1.87;1.10;;;;;;;;;;5112870;27;20511;-49
2021/12/28 11:20:17;;;;;;;1.30;0.77;;;;;;;;;;5090898;27;21339;-50
2021/12/28 11:23:08;;;;;;;1.40;0.70;;;;;;;;;;5115337;27;20925;-50
2021/12/28 11:25:40;;;;;;;1.20;0.60;;;;;;;;;;5097310;27;20443;-49
2021/12/28 11:28:20;;;;;;;1.30;0.70;;;;;;;;;;5085391;28;20455;-50
2021/12/28 11:31:08;;;;;;;0.90;0.60;;;;;;;;;;5101418;28;20423;-51
2021/12/28 11:33:44;;;;;;;1.00;0.67;;;;;;;;;;5103664;28;20438;-51
2021/12/28 11:36:11;;;;;;;0.90;0.50;;;;;;;;;;5093154;28;20483;-51
2021/12/28 11:38:41;;;;;;;1.97;0.73;;;;;;;;;;5085501;28;20541;-50
2021/12/28 11:41:07;;;;;;;1.10;0.60;;;;;;;;;;5109515;28;20430;-49
2021/12/28 11:43:34;;;;;;;1.00;0.60;;;;;;;;;;5105411;28;20868;-50
2021/12/28 11:46:00;;;;;;;0.97;0.60;;;;;;;;;;5098034;28;20435;-49
2021/12/28 11:48:26;;;;;;;1.47;0.70;;;;;;;;;;5091213;28;20520;-49
2021/12/28 11:50:54;;;;;;;1.00;0.50;;;;;;;;;;5107497;28;20927;-50
2021/12/28 11:53:20;;;;;;;1.97;0.80;;;;;;;;;;5064670;28;20444;-49
2021/12/28 11:55:48;;;;;;;0.90;0.60;;;;;;;;;;5113627;28;20454;-50
2021/12/28 11:58:14;;;;;;;1.20;0.90;;;;;;;;;;5109984;28;21053;-49
2021/12/28 12:00:40;;;;;;;1.37;0.60;;;;;;;;;;5114826;28;20933;-49
2021/12/28 12:03:06;;;;;;;1.00;0.60;;;;;;;;;;5115765;28;20205;-49
2021/12/28 12:05:33;;;;;;;0.90;0.60;;;;;;;;;;5113644;28;20571;-50
2021/12/28 12:08:11;;;;;;;0.83;0.50;;;;;;;;;;5106864;28;20525;-49
2021/12/28 12:10:41;;;;;;;1.00;0.60;;;;;;;;;;5113361;28;20435;-50
2021/12/28 12:13:16;;;;;;;0.90;0.70;;;;;;;;;;5104017;27;20440;-50
2021/12/28 12:15:43;;;;;;;1.20;0.73;;;;;;;;;;5114219;28;20441;-50
2021/12/28 12:18:14;;;;;;;0.93;0.60;;;;;;;;;;5093404;28;20477;-51
2021/12/28 12:20:44;;;;;;;1.60;0.73;;;;;;;;;;5114366;28;20521;-49
2021/12/28 12:23:13;;;;;;;1.23;1.00;;;;;;;;;;5086655;28;20438;-51
2021/12/28 12:25:45;;;;;;;3.90;0.93;;;;;;;;;;5109261;28;20435;-51
2021/12/28 12:28:12;;;;;;;2.40;1.60;;;;;;;;;;5094309;28;20439;-50
2021/12/28 12:30:48;;;;;;;1.60;1.20;;;;;;;;;;5121993;28;20435;-50
2021/12/28 12:33:15;;;;;;;1.63;1.40;;;;;;;;;;5091073;28;20462;-50
2021/12/28 12:35:41;;;;;;;2.83;1.33;;;;;;;;;;5109675;27;20431;-50
2021/12/28 12:38:13;;;;;;;1.60;1.27;;;;;;;;;;5109349;27;20470;-49
2021/12/28 12:40:58;;;;;;;2.20;1.83;;;;;;;;;;5116301;27;20487;-50
2021/12/28 12:43:25;;;;;;;4.00;1.27;;;;;;;;;;5099275;27;20434;-50
2021/12/28 12:45:51;;;;;;;1.63;1.13;;;;;;;;;;5117599;27;20510;-50
2021/12/28 12:48:40;;;;;;;3.33;2.27;;;;;;;;;;5084333;27;20434;-50
2021/12/28 12:51:22;;;;;;;1.80;1.07;;;;;;;;;;5106424;27;20880;-50
2021/12/28 12:53:56;;;;;;;1.40;1.30;;;;;;;;;;5094966;27;20455;-50
2021/12/28 12:56:35;;;;;;;1.83;1.00;;;;;;;;;;5110821;27;20558;-51
2021/12/28 12:59:03;;;;;;;1.20;0.90;;;;;;;;;;5096973;27;20729;-50
2021/12/28 13:01:32;;;;;;;1.57;1.03;;;;;;;;;;5114249;27;20434;-49
2021/12/28 13:03:59;;;;;;;1.50;1.07;;;;;;;;;;5104715;27;20446;-50
2021/12/28 13:06:46;;;;;;;1.47;0.80;;;;;;;;;;5113471;27;20435;-50
2021/12/28 13:09:16;;;;;;;1.87;0.93;;;;;;;;;;5068742;27;20465;-51
2021/12/28 13:11:45;;;;;;;1.60;0.90;;;;;;;;;;5104096;27;20451;-51
2021/12/28 13:14:13;;;;;;;1.30;0.90;;;;;;;;;;5117668;27;20446;-50
2021/12/28 13:16:46;;;;;;;1.47;0.80;;;;;;;;;;5100516;27;20455;-51
2021/12/28 13:19:15;;;;;;;1.43;1.07;;;;;;;;;;5077022;27;20488;-50
2021/12/28 13:21:54;;;;;;;2.23;0.90;;;;;;;;;;5114496;27;20516;-50
2021/12/28 13:24:20;;;;;;;3.33;1.90;;;;;;;;;;5106079;27;20464;-50
2021/12/28 13:26:50;;;;;;;1.10;0.80;;;;;;;;;;5107765;27;20474;-50
2021/12/28 13:29:28;;;;;;;1.23;0.90;;;;;;;;;;5104947;27;20473;-52
2021/12/28 13:31:54;;;;;;;1.97;1.10;;;;;;;;;;5112421;27;20432;-50
2021/12/28 13:34:20;;;;;;;1.50;1.10;;;;;;;;;;5116701;27;20443;-51
2021/12/28 13:37:12;;;;;;;1.50;0.97;;;;;;;;;;5110744;27;20815;-50
2021/12/28 13:39:43;;;;;;;2.20;1.00;;;;;;;;;;5105728;27;20439;-50
2021/12/28 13:42:14;;;;;;;4.77;1.10;;;;;;;;;;5079659;27;20439;-49
2021/12/28 13:44:44;;;;;;;1.13;0.80;;;;;;;;;;5094417;27;20500;-49
2021/12/28 13:47:10;;;;;;;1.10;0.60;;;;;;;;;;5104347;27;20455;-49
2021/12/28 13:49:36;;;;;;;2.93;0.93;;;;;;;;;;5109510;27;20456;-49
2021/12/28 13:52:28;;;;;;;1.97;0.77;;;;;;;;;;5098068;27;20459;-52
2021/12/28 13:55:14;;;;;;;2.30;0.80;;;;;;;;;;5109010;27;20446;-52
2021/12/28 13:57:40;;;;;;;1.30;0.90;;;;;;;;;;5115133;27;20462;-49
2021/12/28 14:00:07;;;;;;;1.40;0.83;;;;;;;;;;5105510;27;20475;-48
2021/12/28 14:03:04;;;;;;;2.20;0.63;;;;;;;;;;5117928;27;20438;-50
2021/12/28 14:05:31;;;;;;;1.53;0.90;;;;;;;;;;5098235;27;20427;-51
2021/12/28 14:07:57;;;;;;;2.40;0.90;;;;;;;;;;5104199;27;20428;-50
2021/12/28 14:10:23;;;;;;;1.60;1.43;;;;;;;;;;5086921;27;20443;-51
2021/12/28 14:13:03;;;;;;;4.77;1.07;;;;;;;;;;5097072;27;20431;-51
2021/12/28 14:15:29;;;;;;;1.73;0.83;;;;;;;;;;5109836;27;20483;-50
2021/12/28 14:17:55;;;;;;;4.17;2.80;;;;;;;;;;5111543;27;20518;-50
2021/12/28 14:20:28;;;;;;;2.50;1.00;;;;;;;;;;5081706;27;20432;-50
2021/12/28 14:22:56;;;;;;;3.13;1.33;;;;;;;;;;5118527;27;20437;-50
2021/12/28 14:25:37;;;;;;;3.33;1.10;;;;;;;;;;5092862;27;20532;-51
2021/12/28 14:28:06;;;;;;;1.80;0.90;;;;;;;;;;5115314;27;20423;-50
2021/12/28 14:30:33;;;;;;;3.00;1.00;;;;;;;;;;5081787;27;20476;-51
2021/12/28 14:32:59;;;;;;;2.43;1.03;;;;;;;;;;5114027;27;20423;-51
2021/12/28 14:35:28;;;;;;;1.60;1.20;;;;;;;;;;5104884;27;20558;-49
2021/12/28 14:37:54;;;;;;;3.30;1.43;;;;;;;;;;5119942;27;20233;-50
2021/12/28 14:40:34;;;;;;;2.07;1.07;;;;;;;;;;5089689;27;20511;-50
2021/12/28 14:43:07;;;;;;;2.90;1.07;;;;;;;;;;5112540;27;20467;-49
2021/12/28 14:45:35;;;;;;;1.43;1.10;;;;;;;;;;5097846;27;20512;-50
2021/12/28 14:48:03;;;;;;;2.50;0.90;;;;;;;;;;5114691;27;20432;-51
2021/12/28 14:50:33;;;;;;;3.80;0.90;;;;;;;;;;5062718;27;20443;-50
2021/12/28 14:53:01;;;;;;;2.40;1.07;;;;;;;;;;5116006;27;20523;-49
2021/12/28 14:55:28;;;;;;;2.63;1.20;;;;;;;;;;5103715;27;20432;-57
2021/12/28 14:58:21;;;;;;;3.37;1.77;;;;;;;;;;5114446;27;20507;-50
2021/12/28 15:00:54;;;;;;;2.53;1.30;;;;;;;;;;5060273;27;20443;-50
2021/12/28 15:03:24;;;;;;;2.10;1.17;;;;;;;;;;5109432;27;20502;-50
2021/12/28 15:06:00;;;;;;;2.60;2.00;;;;;;;;;;5108197;27;20657;-50
2021/12/28 15:08:28;;;;;;;3.63;1.20;;;;;;;;;;5083503;27;20442;-49